Time;durP1;ratioP1;P1;durP2;ratioP2;P2;SDS_P1;SDS_P2;PMS_P1;PMS_P2;Temp;Humidity;BMP_temperature;BMP_pressure;BME280_temperature;BME280_humidity;BME280_pressure;Samples;Min_cycle;Max_cycle;Signal;HPM_P1;HPM_P2
2023/10/03 00:02:00;;;;;;;;;;;17.70;80.60;;;;;;5209020;22;19915;-87
2023/10/03 00:04:02;;;;;;;;;;;17.70;80.40;;;;;;5263114;22;19906;-86
2023/10/03 00:06:03;;;;;;;;;;;17.70;80.50;;;;;;5235686;22;19906;-87
2023/10/03 00:08:09;;;;;;;;;;;17.60;80.50;;;;;;5263173;22;19951;-87
2023/10/03 00:10:41;;;;;;;;;;;17.70;80.50;;;;;;5235878;22;20357;-89
2023/10/03 00:13:41;;;;;;;;;;;17.60;80.70;;;;;;5229005;22;20337;-89
2023/10/03 00:16:12;;;;;;;;;;;17.70;80.80;;;;;;5206695;22;19990;-88
2023/10/03 00:18:40;;;;;;;;;;;17.70;80.60;;;;;;5206703;22;20385;-89
2023/10/03 00:20:57;;;;;;;;;;;17.60;80.60;;;;;;5236089;22;20404;-89
2023/10/03 00:23:15;;;;;;;;;;;17.60;80.60;;;;;;5263069;22;19911;-89
2023/10/03 00:25:25;;;;;;;;;;;17.60;80.50;;;;;;5236526;22;19953;-88
2023/10/03 00:27:37;;;;;;;;;;;17.60;80.70;;;;;;5223928;22;20717;-87
2023/10/03 00:29:59;;;;;;;;;;;17.60;80.70;;;;;;5209919;22;19933;-88
2023/10/03 00:34:52;;;;;;;;;;;17.60;80.70;;;;;;5157571;23;20420;-87
2023/10/03 00:37:16;;;;;;;;;;;17.50;80.60;;;;;;5144605;22;20372;-87
2023/10/03 00:39:29;;;;;;;;;;;17.60;80.70;;;;;;5133031;23;19915;-87
2023/10/03 00:41:35;;;;;;;;;;;17.60;80.70;;;;;;5125164;23;19962;-88
2023/10/03 00:44:28;;;;;;;;;;;;;;;;;;;;;
2023/10/03 00:46:59;;;;;;;;;;;;;;;;;;;;;
2023/10/03 00:49:38;;;;;;;;;;;17.60;80.70;;;;;;5181926;22;19926;-87
2023/10/03 00:55:04;;;;;;;;;;;17.60;80.70;;;;;;4977523;23;20858;-88
2023/10/03 00:59:35;;;;;;;;;;;17.60;80.70;;;;;;5058184;23;20371;-88
2023/10/03 01:01:46;;;;;;;;;;;17.60;80.70;;;;;;5033780;23;19913;-87
2023/10/03 01:04:00;;;;;;;;;;;;;;;;;;;;;
2023/10/03 01:08:51;;;;;;;;;;;17.60;80.70;;;;;;5057294;23;20410;-88
2023/10/03 01:14:12;;;;;;;;;;;17.50;80.70;;;;;;5036714;23;19916;-88
2023/10/03 01:16:44;;;;;;;;;;;;;;;;;;;;;
2023/10/03 01:19:29;;;;;;;;;;;17.50;81.40;;;;;;5034333;23;19909;-88
2023/10/03 01:21:59;;;;;;;;;;;17.50;80.60;;;;;;5037157;23;20023;-88
2023/10/03 01:24:20;;;;;;;;;;;17.50;80.60;;;;;;5054920;23;19909;-88
2023/10/03 01:26:45;;;;;;;;;;;;;;;;;;;;;
2023/10/03 01:35:22;;;;;;;;;;;17.50;80.60;;;;;;5060619;23;20391;-88
2023/10/03 01:40:52;;;;;;;;;;;17.50;80.60;;;;;;5084306;23;20259;-87
2023/10/03 01:43:28;;;;;;;;;;;;;;;;;;;;;
2023/10/03 01:46:00;;;;;;;;;;;17.50;80.70;;;;;;5011134;23;20495;-87
2023/10/03 01:48:59;;;;;;;;;;;;;;;;;;;;;
2023/10/03 01:51:21;;;;;;;;;;;17.40;80.60;;;;;;5032357;23;20319;-88
2023/10/03 01:56:35;;;;;;;;;;;17.40;80.70;;;;;;5057380;23;20363;-89
2023/10/03 01:59:13;;;;;;;;;;;17.50;80.80;;;;;;5057233;23;20251;-88
2023/10/03 02:01:42;;;;;;;;;;;17.50;80.90;;;;;;5058084;23;20335;-88
2023/10/03 02:04:41;;;;;;;;;;;17.40;80.70;;;;;;5058821;23;19909;-87
2023/10/03 02:06:56;;;;;;;;;;;17.50;80.80;;;;;;5060632;23;20300;-87
2023/10/03 02:09:08;;;;;;;;;;;17.50;80.90;;;;;;5029987;23;19906;-88
2023/10/03 02:11:27;;;;;;;;;;;;;;;;;;;;;
2023/10/03 02:13:34;;;;;;;;;;;17.40;80.80;;;;;;5116314;23;20338;-88
2023/10/03 02:16:23;;;;;;;;;;;17.40;80.80;;;;;;5110294;23;19936;-87
2023/10/03 02:21:37;;;;;;;;;;;;;;;;;;;;;
2023/10/03 02:24:00;;;;;;;;;;;17.40;80.70;;;;;;5085150;23;19932;-87
2023/10/03 02:26:29;;;;;;;;;;;17.40;80.60;;;;;;5081449;23;20352;-88
2023/10/03 02:31:07;;;;;;;;;;;;;;;;;;;;;
2023/10/03 02:33:21;;;;;;;;;;;17.40;80.80;;;;;;5109794;23;19966;-88
2023/10/03 02:39:08;;;;;;;;;;;17.30;80.70;;;;;;5079895;23;19940;-88
2023/10/03 02:41:48;;;;;;;;;;;17.40;80.70;;;;;;5063426;23;19905;-88
2023/10/03 02:44:21;;;;;;;;;;;17.30;81.00;;;;;;5089228;23;19975;-88
2023/10/03 02:46:42;;;;;;;;;;;17.40;81.10;;;;;;5106664;23;20632;-88
2023/10/03 02:49:19;;;;;;;;;;;;;;;;;;;;;
2023/10/03 02:51:49;;;;;;;;;;;17.30;80.90;;;;;;5103558;23;19963;-87
2023/10/03 02:54:12;;;;;;;;;;;17.30;80.90;;;;;;5106368;23;20449;-88
2023/10/03 02:56:32;;;;;;;;;;;17.30;81.00;;;;;;5107082;23;20216;-88
2023/10/03 02:58:53;;;;;;;;;;;17.30;80.70;;;;;;5124411;23;19904;-87
2023/10/03 03:01:14;;;;;;;;;;;17.30;80.50;;;;;;5112606;23;19955;-87
2023/10/03 03:03:34;;;;;;;;;;;17.20;80.40;;;;;;5133708;23;19912;-86
2023/10/03 03:05:55;;;;;;;;;;;17.20;80.50;;;;;;5110674;23;19992;-87
2023/10/03 03:10:59;;;;;;;;;;;17.20;81.00;;;;;;5130874;23;19904;-89
2023/10/03 03:13:22;;;;;;;;;;;17.20;80.80;;;;;;5134025;23;19915;-89
2023/10/03 03:15:26;;;;;;;;;;;17.20;80.90;;;;;;5177182;22;19981;-88
2023/10/03 03:17:52;;;;;;;;;;;17.20;80.80;;;;;;5263755;22;19951;-87
2023/10/03 03:19:55;;;;;;;;;;;17.20;80.80;;;;;;5158091;23;19903;-88
2023/10/03 03:22:21;;;;;;;;;;;17.20;80.90;;;;;;5133506;23;20282;-87
2023/10/03 03:24:28;;;;;;;;;;;17.10;81.30;;;;;;5133776;23;19931;-87
2023/10/03 03:26:45;;;;;;;;;;;17.20;81.10;;;;;;5130985;23;20160;-87
2023/10/03 03:29:35;;;;;;;;;;;17.10;81.00;;;;;;5156209;22;20669;-88
2023/10/03 03:31:59;;;;;;;;;;;17.10;81.00;;;;;;5132823;23;19904;-88
2023/10/03 03:34:40;;;;;;;;;;;17.20;81.10;;;;;;5156564;23;20659;-88
2023/10/03 03:37:22;;;;;;;;;;;17.20;81.20;;;;;;5134965;23;19935;-89
2023/10/03 03:40:11;;;;;;;;;;;17.20;81.20;;;;;;5133882;23;20702;-87
2023/10/03 03:43:13;;;;;;;;;;;17.20;81.30;;;;;;5136845;23;19999;-87
2023/10/03 03:45:36;;;;;;;;;;;17.10;81.30;;;;;;5160713;22;19914;-87
2023/10/03 03:48:06;;;;;;;;;;;17.20;81.40;;;;;;5138195;23;20636;-88
2023/10/03 03:50:29;;;;;;;;;;;17.20;81.50;;;;;;5156532;23;20350;-89
2023/10/03 03:53:07;;;;;;;;;;;17.20;81.50;;;;;;5136307;23;20503;-88
2023/10/03 03:55:43;;;;;;;;;;;17.20;81.40;;;;;;5156663;23;20322;-87
2023/10/03 03:58:04;;;;;;;;;;;;;;;;;;;;;
2023/10/03 04:00:28;;;;;;;;;;;17.20;81.40;;;;;;5263354;22;20392;-88
2023/10/03 04:03:06;;;;;;;;;;;17.10;81.40;;;;;;5233717;22;20028;-87
2023/10/03 04:05:08;;;;;;;;;;;17.20;81.30;;;;;;5234354;22;19933;-87
2023/10/03 04:07:20;;;;;;;;;;;17.10;81.30;;;;;;5208478;22;20325;-88
2023/10/03 04:09:45;;;;;;;;;;;17.20;81.30;;;;;;5212421;22;19903;-88
2023/10/03 04:11:58;;;;;;;;;;;17.20;81.40;;;;;;5231518;22;19915;-88
2023/10/03 04:14:24;;;;;;;;;;;17.10;81.30;;;;;;5262807;22;19906;-88
2023/10/03 04:17:03;;;;;;;;;;;17.20;81.30;;;;;;5247720;22;19910;-89
2023/10/03 04:19:34;;;;;;;;;;;17.20;81.30;;;;;;5262834;22;20724;-88
2023/10/03 04:22:20;;;;;;;;;;;17.10;81.30;;;;;;5238610;22;19922;-86
2023/10/03 04:24:24;;;;;;;;;;;17.10;81.50;;;;;;5236423;22;19903;-88
2023/10/03 04:26:46;;;;;;;;;;;17.10;81.40;;;;;;5239926;22;19985;-88
2023/10/03 04:29:08;;;;;;;;;;;17.10;81.30;;;;;;5232310;22;20236;-86
2023/10/03 04:31:48;;;;;;;;;;;17.20;81.30;;;;;;5236649;22;20252;-88
2023/10/03 04:34:11;;;;;;;;;;;17.10;81.20;;;;;;5261627;22;19981;-86
2023/10/03 04:36:36;;;;;;;;;;;17.10;80.90;;;;;;5240419;22;19939;-86
2023/10/03 04:38:56;;;;;;;;;;;17.20;80.90;;;;;;5262166;22;20188;-86
2023/10/03 04:41:17;;;;;;;;;;;17.10;80.90;;;;;;5261908;22;20421;-85
2023/10/03 04:43:39;;;;;;;;;;;17.10;80.80;;;;;;5239994;22;20414;-88
2023/10/03 04:46:01;;;;;;;;;;;17.10;80.70;;;;;;5236727;22;20863;-88
2023/10/03 04:48:26;;;;;;;;;;;17.00;80.70;;;;;;5240117;22;20001;-87
2023/10/03 04:51:22;;;;;;;;;;;17.10;80.70;;;;;;5240572;22;19903;-87
2023/10/03 04:53:32;;;;;;;;;;;17.10;80.80;;;;;;5237398;22;19906;-89
2023/10/03 04:55:33;;;;;;;;;;;17.10;81.00;;;;;;5232798;22;19907;-86
2023/10/03 04:57:35;;;;;;;;;;;17.00;80.90;;;;;;5235382;22;19921;-87
2023/10/03 04:59:36;;;;;;;;;;;17.10;81.00;;;;;;5235704;22;19907;-88
2023/10/03 05:01:37;;;;;;;;;;;17.00;80.80;;;;;;5237092;22;20367;-87
2023/10/03 05:03:38;;;;;;;;;;;17.00;80.80;;;;;;5262171;22;20127;-85
2023/10/03 05:05:45;;;;;;;;;;;17.00;80.80;;;;;;5235201;22;19914;-89
2023/10/03 05:07:53;;;;;;;;;;;17.00;80.90;;;;;;5237498;22;19917;-87
2023/10/03 05:10:13;;;;;;;;;;;17.00;81.60;;;;;;5239193;22;20029;-87
2023/10/03 05:12:18;;;;;;;;;;;17.00;80.90;;;;;;5236533;22;19902;-87
2023/10/03 05:14:40;;;;;;;;;;;17.00;80.90;;;;;;5240675;22;20293;-87
2023/10/03 05:17:03;;;;;;;;;;;17.00;81.10;;;;;;5241361;22;20252;-87
2023/10/03 05:19:46;;;;;;;;;;;17.00;81.10;;;;;;5241662;22;20324;-87
2023/10/03 05:22:37;;;;;;;;;;;16.90;81.00;;;;;;5239338;22;20275;-87
2023/10/03 05:25:27;;;;;;;;;;;16.90;81.00;;;;;;5138183;23;19907;-86
2023/10/03 05:27:51;;;;;;;;;;;17.00;81.10;;;;;;5155879;23;19915;-86
2023/10/03 05:30:21;;;;;;;;;;;16.90;81.00;;;;;;5135961;23;19903;-87
2023/10/03 05:32:30;;;;;;;;;;;17.00;81.10;;;;;;5132172;23;19908;-86
2023/10/03 05:34:31;;;;;;;;;;;17.00;81.10;;;;;;5132785;23;19983;-86
2023/10/03 05:36:34;;;;;;;;;;;17.00;81.10;;;;;;5157453;23;19908;-86
2023/10/03 05:38:35;;;;;;;;;;;17.00;81.20;;;;;;5132470;23;19972;-87
2023/10/03 05:40:57;;;;;;;;;;;17.00;81.20;;;;;;5158539;23;20349;-87
2023/10/03 05:43:14;;;;;;;;;;;;;;;;;;;;;
2023/10/03 05:45:49;;;;;;;;;;;17.00;81.20;;;;;;5153552;23;20350;-87
2023/10/03 05:47:50;;;;;;;;;;;17.00;81.20;;;;;;5132493;23;19943;-86
2023/10/03 05:50:23;;;;;;;;;;;17.00;81.30;;;;;;5157097;22;20399;-87
2023/10/03 05:52:44;;;;;;;;;;;17.00;81.20;;;;;;5156843;23;20273;-87
2023/10/03 05:55:05;;;;;;;;;;;17.00;81.30;;;;;;5135482;23;19911;-87
2023/10/03 05:57:25;;;;;;;;;;;17.00;81.20;;;;;;5157435;23;20305;-88
2023/10/03 05:59:47;;;;;;;;;;;17.00;81.20;;;;;;5136511;23;20258;-87
2023/10/03 06:02:08;;;;;;;;;;;17.00;81.30;;;;;;5226114;22;20274;-87
2023/10/03 06:04:30;;;;;;;;;;;17.00;81.30;;;;;;5239517;22;20242;-89
2023/10/03 06:06:51;;;;;;;;;;;17.00;81.30;;;;;;5237563;22;19936;-89
2023/10/03 06:09:16;;;;;;;;;;;17.00;81.20;;;;;;5265938;22;19910;-88
2023/10/03 06:11:51;;;;;;;;;;;17.00;81.20;;;;;;5241715;22;19906;-88
2023/10/03 06:14:28;;;;;;;;;;;17.00;81.30;;;;;;5239551;22;19903;-89
2023/10/03 06:16:38;;;;;;;;;;;17.10;81.30;;;;;;5232301;22;19988;-89
2023/10/03 06:18:51;;;;;;;;;;;;;;;;;;;;;
2023/10/03 06:20:57;;;;;;;;;;;17.00;81.30;;;;;;5234768;22;20367;-88
2023/10/03 06:23:47;;;;;;;;;;;17.00;81.40;;;;;;5241939;22;19950;-88
2023/10/03 06:26:08;;;;;;;;;;;17.10;81.40;;;;;;5235567;22;19930;-87
2023/10/03 06:28:28;;;;;;;;;;;17.10;81.40;;;;;;5212369;22;20317;-89
2023/10/03 06:30:54;;;;;;;;;;;17.00;81.30;;;;;;5234279;22;19907;-86
2023/10/03 06:33:15;;;;;;;;;;;17.20;81.40;;;;;;5261441;22;20022;-88
2023/10/03 06:35:42;;;;;;;;;;;17.10;81.40;;;;;;5256773;22;19906;-88
2023/10/03 06:38:03;;;;;;;;;;;17.20;81.30;;;;;;5240113;22;19906;-87
2023/10/03 06:40:23;;;;;;;;;;;17.10;81.30;;;;;;5211985;22;19911;-88
2023/10/03 06:42:53;;;;;;;;;;;17.10;81.30;;;;;;5239970;22;19914;-88
2023/10/03 06:45:21;;;;;;;;;;;17.20;81.60;;;;;;5239881;22;19910;-89
2023/10/03 06:47:44;;;;;;;;;;;17.20;81.40;;;;;;5238983;22;19914;-89
2023/10/03 06:50:13;;;;;;;;;;;17.20;81.40;;;;;;5238401;22;20360;-86
2023/10/03 06:52:40;;;;;;;;;;;17.20;81.40;;;;;;5238754;22;20585;-89
2023/10/03 06:55:16;;;;;;;;;;;17.10;81.20;;;;;;5239746;22;20287;-87
2023/10/03 06:57:40;;;;;;;;;;;17.20;81.20;;;;;;5240409;22;19907;-88
2023/10/03 07:00:13;;;;;;;;;;;17.20;81.20;;;;;;5263056;22;19916;-88
2023/10/03 07:02:54;;;;;;;;;;;17.30;81.20;;;;;;5259197;22;19920;-86
2023/10/03 07:05:15;;;;;;;;;;;17.20;81.00;;;;;;5258548;22;19906;-88
2023/10/03 07:07:52;;;;;;;;;;;17.30;81.10;;;;;;5238679;22;19936;-88
2023/10/03 07:10:16;;;;;;;;;;;17.30;81.10;;;;;;5230784;22;19902;-88
2023/10/03 07:12:17;;;;;;;;;;;17.40;81.40;;;;;;5234387;22;19942;-87
2023/10/03 07:17:03;;;;;;;;;;;17.40;81.30;;;;;;5226840;22;20380;-88
2023/10/03 07:19:14;;;;;;;;;;;;;;;;;;;;;
2023/10/03 07:21:41;;;;;;;;;;;17.50;81.40;;;;;;5261064;22;20393;-87
2023/10/03 07:24:24;;;;;;;;;;;17.50;81.30;;;;;;5232054;22;20362;-90
2023/10/03 07:26:33;;;;;;;;;;;17.50;81.30;;;;;;5242542;22;19907;-88
2023/10/03 07:29:17;;;;;;;;;;;17.50;81.20;;;;;;5212546;22;20519;-89
2023/10/03 07:31:38;;;;;;;;;;;17.50;81.00;;;;;;5212713;22;19936;-88
2023/10/03 07:33:58;;;;;;;;;;;17.60;81.00;;;;;;5238413;22;20274;-89
2023/10/03 07:36:25;;;;;;;;;;;17.60;81.10;;;;;;5237237;22;20112;-89
2023/10/03 07:38:50;;;;;;;;;;;17.70;81.10;;;;;;5234283;22;19981;-87
2023/10/03 07:41:15;;;;;;;;;;;17.70;81.00;;;;;;5211062;22;19907;-88
2023/10/03 07:43:48;;;;;;;;;;;17.70;80.90;;;;;;5206635;22;19986;-88
2023/10/03 07:46:44;;;;;;;;;;;17.80;80.80;;;;;;5154151;22;19908;-89
2023/10/03 07:48:56;;;;;;;;;;;17.80;80.60;;;;;;5108671;23;19910;-89
2023/10/03 07:51:05;;;;;;;;;;;17.90;80.50;;;;;;5105755;23;19905;-88
2023/10/03 07:56:33;;;;;;;;;;;17.80;80.20;;;;;;5058156;23;19944;-87
2023/10/03 07:58:37;;;;;;;;;;;17.70;80.00;;;;;;5032429;23;19912;-87
2023/10/03 08:01:15;;;;;;;;;;;17.80;80.10;;;;;;5049739;23;20622;-88
2023/10/03 08:03:56;;;;;;;;;;;17.90;80.10;;;;;;5053322;23;20395;-88
2023/10/03 08:06:19;;;;;;;;;;;17.90;80.00;;;;;;5050719;23;19952;-88
2023/10/03 08:08:47;;;;;;;;;;;17.90;80.00;;;;;;5055273;23;19909;-88
2023/10/03 08:11:24;;;;;;;;;;;;;;;;;;;;;
2023/10/03 08:13:50;;;;;;;;;;;17.90;79.70;;;;;;5053369;23;19941;-87
2023/10/03 08:16:56;;;;;;;;;;;17.90;79.60;;;;;;5054515;23;20283;-89
2023/10/03 08:18:58;;;;;;;;;;;18.00;79.70;;;;;;5033465;23;19917;-87
2023/10/03 08:21:04;;;;;;;;;;;18.00;79.70;;;;;;5033855;23;19909;-90
2023/10/03 08:23:05;;;;;;;;;;;18.00;79.40;;;;;;5070814;23;19917;-88
2023/10/03 08:25:06;;;;;;;;;;;18.00;79.40;;;;;;5080344;23;19915;-87
2023/10/03 08:30:26;;;;;;;;;;;18.00;79.40;;;;;;5008893;23;19917;-88
2023/10/03 08:32:39;;;;;;;;;;;18.00;79.40;;;;;;4994996;23;19909;-88
2023/10/03 08:35:12;;;;;;;;;;;18.10;79.50;;;;;;5031096;23;20316;-89
2023/10/03 08:37:36;;;;;;;;;;;18.10;79.70;;;;;;5033800;23;19915;-86
2023/10/03 08:40:19;;;;;;;;;;;18.10;79.60;;;;;;5009572;23;20507;-89
2023/10/03 08:43:02;;;;;;;;;;;18.10;79.80;;;;;;5007101;23;19948;-88
2023/10/03 08:45:35;;;;;;;;;;;18.20;79.80;;;;;;5007394;23;19954;-90
2023/10/03 08:48:05;;;;;;;;;;;18.10;79.80;;;;;;5010108;23;20370;-89
2023/10/03 08:50:53;;;;;;;;;;;18.10;80.00;;;;;;5007074;23;19909;-88
2023/10/03 08:56:17;;;;;;;;;;;18.10;80.40;;;;;;4985057;23;20760;-89
2023/10/03 08:58:58;;;;;;;;;;;18.10;80.70;;;;;;4986597;23;20671;-89
2023/10/03 09:01:34;;;;;;;;;;;;;;;;;;;;;
2023/10/03 09:03:59;;;;;;;;;;;18.10;81.20;;;;;;5029461;23;19956;-86
2023/10/03 09:06:20;;;;;;;;;;;18.20;81.60;;;;;;5039999;23;19909;-88
2023/10/03 09:08:26;;;;;;;;;;;18.20;82.00;;;;;;5059378;23;19909;-88
2023/10/03 09:10:51;;;;;;;;;;;18.20;82.20;;;;;;5027111;23;19916;-89
2023/10/03 09:13:15;;;;;;;;;;;18.30;82.10;;;;;;5090789;23;20404;-87
2023/10/03 09:15:42;;;;;;;;;;;18.20;81.80;;;;;;5084339;23;19936;-87
2023/10/03 09:18:25;;;;;;;;;;;18.30;81.90;;;;;;5083608;23;19913;-87
2023/10/03 09:20:45;;;;;;;;;;;18.30;81.90;;;;;;5105602;23;19923;-88
2023/10/03 09:23:23;;;;;;;;;;;18.30;82.10;;;;;;5106923;23;19916;-87
2023/10/03 09:25:52;;;;;;;;;;;18.30;81.90;;;;;;5086140;23;20319;-89
2023/10/03 09:28:27;;;;;;;;;;;18.30;81.90;;;;;;5107770;23;19908;-88
2023/10/03 09:30:48;;;;;;;;;;;18.40;81.90;;;;;;5193674;22;20685;-88
2023/10/03 09:33:41;;;;;;;;;;;18.40;81.90;;;;;;5235521;22;19913;-89
2023/10/03 09:36:03;;;;;;;;;;;18.30;81.90;;;;;;5127201;23;19954;-87
2023/10/03 09:38:19;;;;;;;;;;;18.40;82.00;;;;;;5103043;23;20007;-90
2023/10/03 09:40:52;;;;;;;;;;;18.40;82.00;;;;;;5111020;23;20300;-89
2023/10/03 09:43:28;;;;;;;;;;;18.40;82.10;;;;;;5064965;23;20367;-88
2023/10/03 09:45:55;;;;;;;;;;;18.50;82.00;;;;;;5126642;23;20173;-87
2023/10/03 09:48:12;;;;;;;;;;;18.50;82.10;;;;;;5155934;23;19958;-86
2023/10/03 09:50:39;;;;;;;;;;;18.50;82.20;;;;;;5130487;23;20538;-91
2023/10/03 09:53:11;;;;;;;;;;;18.60;82.30;;;;;;5128383;23;20329;-87
2023/10/03 09:55:57;;;;;;;;;;;18.60;82.10;;;;;;5110896;23;19908;-88
2023/10/03 09:58:24;;;;;;;;;;;18.60;81.90;;;;;;5109601;23;19915;-89
2023/10/03 10:03:56;;;;;;;;;;;;;;;;;;;;;
2023/10/03 10:06:47;;;;;;;;;;;18.70;81.60;;;;;;5102448;23;19958;-87
2023/10/03 10:09:23;;;;;;;;;;;18.70;81.60;;;;;;5083740;23;19908;-87
2023/10/03 10:11:33;;;;;;;;;;;18.70;81.50;;;;;;5058750;23;19909;-89
2023/10/03 10:14:16;;;;;;;;;;;18.70;81.10;;;;;;5134200;23;20338;-88
2023/10/03 10:16:28;;;;;;;;;;;18.80;81.20;;;;;;5127679;23;19986;-89
2023/10/03 10:18:44;;;;;;;;;;;18.80;81.10;;;;;;5104025;23;19932;-89
2023/10/03 10:20:45;;;;;;;;;;;18.80;81.70;;;;;;5154534;23;19912;-86
2023/10/03 10:23:01;;;;;;;;;;;18.80;81.00;;;;;;5130941;23;19993;-88
2023/10/03 10:25:28;;;;;;;;;;;18.80;81.00;;;;;;5153721;22;19907;-89
2023/10/03 10:27:59;;;;;;;;;;;18.90;81.00;;;;;;5155074;23;19907;-87
2023/10/03 10:30:27;;;;;;;;;;;18.90;80.80;;;;;;5132122;23;19994;-88
2023/10/03 10:33:09;;;;;;;;;;;18.90;80.70;;;;;;5152025;23;19981;-88
2023/10/03 10:35:49;;;;;;;;;;;18.90;80.00;;;;;;5153197;22;20009;-89
2023/10/03 10:38:12;;;;;;;;;;;18.80;78.00;;;;;;5132923;23;20322;-90
2023/10/03 10:40:35;;;;;;;;;;;18.70;76.40;;;;;;5165350;22;20339;-90
2023/10/03 10:43:11;;;;;;;;;;;18.60;75.60;;;;;;5201511;22;19919;-90
2023/10/03 10:45:50;;;;;;;;;;;18.50;74.80;;;;;;5206331;22;19937;-89
2023/10/03 10:47:51;;;;;;;;;;;18.40;74.60;;;;;;5208349;22;19934;-88
2023/10/03 10:49:55;;;;;;;;;;;18.30;74.70;;;;;;5181718;22;19907;-90
2023/10/03 10:51:57;;;;;;;;;;;18.20;74.60;;;;;;5206708;22;19907;-88
2023/10/03 10:54:23;;;;;;;;;;;18.10;74.60;;;;;;5202564;22;20020;-89
2023/10/03 10:57:10;;;;;;;;;;;18.00;74.60;;;;;;5233846;22;20405;-87
2023/10/03 10:59:40;;;;;;;;;;;17.80;74.60;;;;;;5125335;23;19908;-91
2023/10/03 11:05:15;;;;;;;;;;;17.70;74.60;;;;;;5127883;23;19904;-88
2023/10/03 11:07:36;;;;;;;;;;;17.60;74.30;;;;;;5110203;23;19912;-88
2023/10/03 11:10:15;;;;;;;;;;;17.50;74.00;;;;;;5131616;23;19907;-91
2023/10/03 11:12:36;;;;;;;;;;;17.50;73.30;;;;;;5103463;23;19912;-89
2023/10/03 11:14:52;;;;;;;;;;;17.40;73.00;;;;;;5133634;23;19961;-89
2023/10/03 11:16:55;;;;;;;;;;;17.40;72.80;;;;;;5127119;23;19908;-88
2023/10/03 11:19:16;;;;;;;;;;;17.40;73.00;;;;;;5123670;23;20425;-90
2023/10/03 11:21:40;;;;;;;;;;;17.30;73.10;;;;;;5108300;23;20449;-89
2023/10/03 11:24:28;;;;;;;;;;;17.20;72.90;;;;;;5111342;23;20456;-88
2023/10/03 11:26:50;;;;;;;;;;;17.30;72.70;;;;;;5127873;23;20507;-90
2023/10/03 11:29:11;;;;;;;;;;;17.20;72.50;;;;;;5106479;23;20651;-88
2023/10/03 11:31:36;;;;;;;;;;;17.20;72.20;;;;;;5108572;23;19915;-89
2023/10/03 11:33:43;;;;;;;;;;;17.10;71.40;;;;;;5127988;23;19908;-88
2023/10/03 11:35:53;;;;;;;;;;;17.10;71.60;;;;;;5145032;22;19914;-88
2023/10/03 11:38:08;;;;;;;;;;;17.20;71.80;;;;;;5207408;22;19961;-88
2023/10/03 11:40:45;;;;;;;;;;;;;;;;;;;;;
2023/10/03 11:43:15;;;;;;;;;;;17.00;72.30;;;;;;5178710;22;20405;-89
2023/10/03 11:45:36;;;;;;;;;;;16.90;72.70;;;;;;5129597;23;19923;-88
2023/10/03 11:48:39;;;;;;;;;;;16.90;72.80;;;;;;5214003;22;20244;-89
2023/10/03 11:51:15;;;;;;;;;;;16.90;72.50;;;;;;5233799;22;20300;-91
2023/10/03 11:53:46;;;;;;;;;;;16.80;72.70;;;;;;5212036;22;19984;-88
2023/10/03 11:55:52;;;;;;;;;;;16.80;72.60;;;;;;5206962;22;19922;-90
2023/10/03 11:58:45;;;;;;;;;;;16.70;72.70;;;;;;5196610;22;20526;-88
2023/10/03 12:01:35;;;;;;;;;;;16.70;73.00;;;;;;5127492;23;20215;-89
2023/10/03 12:06:44;;;;;;;;;;;16.50;73.80;;;;;;5055584;23;20077;-88
2023/10/03 12:09:09;;;;;;;;;;;16.40;73.80;;;;;;5053489;23;20319;-90
2023/10/03 12:11:56;;;;;;;;;;;16.50;74.10;;;;;;5040083;23;20120;-89
2023/10/03 12:18:25;;;;;;;;;;;16.20;73.60;;;;;;5259352;22;20056;-89
2023/10/03 12:21:13;;;;;;;;;;;16.10;73.60;;;;;;5235933;22;19930;-89
2023/10/03 12:23:36;;;;;;;;;;;16.10;73.60;;;;;;5242266;22;20801;-87
2023/10/03 12:25:48;;;;;;;;;;;16.00;73.80;;;;;;5257710;22;19913;-87
2023/10/03 12:28:12;;;;;;;;;;;15.90;74.10;;;;;;5259961;22;19910;-88
2023/10/03 12:30:33;;;;;;;;;;;15.90;74.00;;;;;;5233696;22;19910;-88
2023/10/03 12:33:18;;;;;;;;;;;15.70;74.10;;;;;;5229007;22;19907;-90
2023/10/03 12:35:52;;;;;;;;;;;15.70;74.50;;;;;;5235945;22;19903;-90
2023/10/03 12:38:27;;;;;;;;;;;15.60;74.70;;;;;;5239167;22;20235;-88
2023/10/03 12:40:38;;;;;;;;;;;15.50;74.80;;;;;;5206032;22;20211;-89
2023/10/03 12:43:10;;;;;;;;;;;15.50;74.70;;;;;;5210559;22;19941;-88
2023/10/03 12:45:40;;;;;;;;;;;;;;;;;;;;;
2023/10/03 12:48:09;;;;;;;;;;;15.40;75.10;;;;;;5180485;22;19939;-87
2023/10/03 12:53:35;;;;;;;;;;;;;;;;;;;;;
2023/10/03 12:55:49;;;;;;;;;;;15.30;75.40;;;;;;5230116;22;19985;-86
2023/10/03 12:58:12;;;;;;;;;;;15.10;75.20;;;;;;5233360;22;20363;-87
2023/10/03 13:00:59;;;;;;;;;;;;;;;;;;;;;
2023/10/03 13:03:23;;;;;;;;;;;15.20;76.00;;;;;;5208019;22;20312;-88
2023/10/03 13:06:11;;;;;;;;;;;15.10;75.80;;;;;;5208887;22;19964;-89
2023/10/03 13:08:32;;;;;;;;;;;15.10;75.30;;;;;;5205882;22;20265;-89
2023/10/03 13:11:01;;;;;;;;;;;15.10;75.40;;;;;;5211781;22;19930;-89
2023/10/03 13:13:54;;;;;;;;;;;14.90;75.10;;;;;;5211353;22;20241;-89
2023/10/03 13:16:33;;;;;;;;;;;14.90;75.10;;;;;;5230121;22;19938;-89
2023/10/03 13:18:35;;;;;;;;;;;15.00;75.10;;;;;;5205606;22;19955;-88
2023/10/03 13:20:42;;;;;;;;;;;14.90;74.90;;;;;;5127859;23;19907;-91
2023/10/03 13:22:53;;;;;;;;;;;14.80;74.80;;;;;;5108336;23;19919;-89
2023/10/03 13:25:20;;;;;;;;;;;14.80;74.40;;;;;;5111191;23;19904;-88
2023/10/03 13:27:47;;;;;;;;;;;14.80;73.80;;;;;;5132570;23;19908;-89
2023/10/03 13:33:06;;;;;;;;;;;14.80;73.90;;;;;;5159246;23;19908;-89
2023/10/03 13:35:41;;;;;;;;;;;14.80;74.20;;;;;;5162199;22;19935;-88
2023/10/03 13:38:10;;;;;;;;;;;14.90;74.60;;;;;;5184750;22;19915;-88
2023/10/03 13:40:43;;;;;;;;;;;14.80;74.50;;;;;;5180562;22;19911;-89
2023/10/03 13:43:29;;;;;;;;;;;14.70;74.10;;;;;;5163903;22;20304;-87
2023/10/03 13:45:56;;;;;;;;;;;14.70;74.30;;;;;;5160687;22;19904;-88
2023/10/03 13:48:16;;;;;;;;;;;14.60;74.30;;;;;;5162603;22;19907;-88
2023/10/03 13:56:05;;;;;;;;;;;14.50;75.00;;;;;;5269074;22;19971;-90
2023/10/03 13:58:11;;;;;;;;;;;14.50;75.20;;;;;;5237861;22;19941;-89
2023/10/03 14:00:23;;;;;;;;;;;14.50;75.50;;;;;;5236904;22;19903;-90
2023/10/03 14:07:42;;;;;;;;;;;14.60;76.10;;;;;;5266495;22;19926;-90
2023/10/03 14:10:06;;;;;;;;;;;14.60;76.50;;;;;;5242892;22;19934;-91
2023/10/03 14:12:27;;;;;;;;;;;14.70;76.50;;;;;;5243037;22;19922;-90
2023/10/03 14:14:48;;;;;;;;;;;14.70;76.50;;;;;;5264579;22;20523;-89
2023/10/03 14:17:10;;;;;;;;;;;14.60;76.50;;;;;;5263383;22;19928;-89
2023/10/03 14:19:15;;;;;;;;;;;14.80;76.40;;;;;;5238001;22;19932;-90
2023/10/03 14:21:24;;;;;;;;;;;14.80;75.80;;;;;;5215054;22;19907;-92
2023/10/03 14:23:25;;;;;;;;;;;14.80;75.70;;;;;;5211173;22;19946;-88
2023/10/03 14:25:49;;;;;;;;;;;14.90;75.50;;;;;;5244139;22;19913;-89
2023/10/03 14:28:17;;;;;;;;;;;14.90;75.30;;;;;;5265721;22;19925;-88
2023/10/03 14:30:18;;;;;;;;;;;15.00;75.00;;;;;;5238494;22;19906;-89
2023/10/03 14:32:20;;;;;;;;;;;14.90;75.10;;;;;;5212966;22;20044;-88
2023/10/03 14:34:31;;;;;;;;;;;15.00;74.10;;;;;;5239236;22;19937;-89
2023/10/03 14:36:45;;;;;;;;;;;15.00;74.00;;;;;;5240369;22;19914;-90
2023/10/03 14:38:45;;;;;;;;;;;15.00;73.30;;;;;;5234125;22;19911;-90
2023/10/03 14:40:47;;;;;;;;;;;15.00;73.10;;;;;;5208786;22;19903;-89
2023/10/03 14:42:49;;;;;;;;;;;15.10;73.20;;;;;;5211126;22;19911;-92
2023/10/03 14:45:14;;;;;;;;;;;15.10;72.20;;;;;;5212510;22;19907;-88
2023/10/03 14:47:15;;;;;;;;;;;15.10;71.90;;;;;;5210144;22;20329;-88
2023/10/03 14:49:16;;;;;;;;;;;15.20;71.90;;;;;;5264022;22;19913;-88
2023/10/03 14:51:17;;;;;;;;;;;15.10;71.50;;;;;;5211421;22;20576;-89
2023/10/03 14:53:26;;;;;;;;;;;15.20;71.00;;;;;;5236007;22;19906;-90
2023/10/03 14:55:31;;;;;;;;;;;15.20;71.30;;;;;;5209699;22;19914;-89
2023/10/03 14:57:32;;;;;;;;;;;15.20;71.30;;;;;;5261317;22;19906;-88
2023/10/03 14:59:39;;;;;;;;;;;15.10;70.80;;;;;;5258284;22;19911;-90
2023/10/03 15:01:41;;;;;;;;;;;15.20;70.80;;;;;;5206127;22;19938;-91
2023/10/03 15:03:44;;;;;;;;;;;15.10;70.90;;;;;;5207159;22;19914;-89
2023/10/03 15:05:45;;;;;;;;;;;15.20;70.90;;;;;;5235496;22;19991;-87
2023/10/03 15:07:45;;;;;;;;;;;15.20;71.40;;;;;;5260431;22;19914;-87
2023/10/03 15:09:46;;;;;;;;;;;15.10;71.70;;;;;;5261699;22;19955;-88
2023/10/03 15:11:46;;;;;;;;;;;15.20;71.80;;;;;;5262944;22;19951;-87
2023/10/03 15:13:47;;;;;;;;;;;15.20;71.90;;;;;;5235092;22;19910;-89
2023/10/03 15:15:48;;;;;;;;;;;15.20;72.10;;;;;;5258855;22;20018;-86
2023/10/03 15:17:49;;;;;;;;;;;15.20;71.00;;;;;;5261981;22;19907;-89
2023/10/03 15:19:50;;;;;;;;;;;15.10;71.40;;;;;;5235036;22;20351;-88
2023/10/03 15:21:51;;;;;;;;;;;15.10;72.20;;;;;;5262300;22;19906;-87
2023/10/03 15:23:51;;;;;;;;;;;15.00;72.10;;;;;;5261091;22;19917;-87
2023/10/03 15:25:52;;;;;;;;;;;15.00;72.10;;;;;;5261937;22;19981;-86
2023/10/03 15:27:54;;;;;;;;;;;15.10;72.20;;;;;;5238629;22;19922;-89
2023/10/03 15:29:55;;;;;;;;;;;15.00;72.30;;;;;;5261621;22;19906;-89
2023/10/03 15:31:56;;;;;;;;;;;15.10;72.30;;;;;;5288066;22;19894;-88